Impacts TAF Board INFO
FOR SITUATIONAL AWARENESS. NOT TO BE USED FOR FLIGHT PLANNING PURPOSES.
IDs:

KPHL - Philadelphia Intl, PA, US

Issued at 0520 UTC 17 Aug 2018
Updated at 0525 UTC 17 Aug 2018
Potential Impact None Slight Moderate High
Time0454Z 17/06Z 17/07Z 17/08Z 17/09Z 17/10Z 17/11Z 17/12Z 17/13Z 17/14Z 17/15Z 17/16Z 17/17Z 17/18Z>>
Type OBS PRVL PRVL PRVL PRVL PRVL PRVL PRVL PRVL PRVL PRVL PRVL PRVL PRVL
VIS 10 >6 >6 >6 >6 >6 >6 >6 >6 >6 >6 >6 >6 >6
CIG -- -- -- -- -- -- -- -- -- -- 200 200 200 200
Cover SCT SCT SCT SCT SCT SCT SCT SCT SCT SCT BKN BKN BKN BKN
FltCat VFR VFR VFR VFR VFR VFR VFR VFR VFR VFR VFR VFR VFR VFR
WX -- -- -- -- -- -- -- -- -- -- -- -- -- --
WDir 180 VRB VRB VRB VRB VRB VRB VRB VRB VRB 200 200 200 200
WSpd 4 3 3 3 3 3 3 3 3 3 5 5 5 5
WGst -- -- -- -- -- -- -- -- -- -- -- -- -- --

Raw TAF
KPHL 170520Z 1706/1812 VRB03KT P6SM SCT250
  FM171500 20005KT P6SM BKN200
  FM171900 21009KT P6SM BKN150
  PROB30 1720/1722 3SM SHRA BKN100
  FM180000 21008KT 4SM SHRA VCTS BKN060CB OVC100
  FM180400 VRB04KT P6SM BKN060


Raw METAR
KPHL 170454Z 18004KT 10SM FEW240 SCT280 26/22 A3010 RMK AO2 SLP193 T02560217 403170228 $
KPHL 170354Z 18003KT 10SM SCT240 SCT280 26/22 A3010 RMK AO2 SLP193 T02560222 $
KPHL 170254Z 19006KT 10SM SCT240 BKN280 27/22 A3011 RMK AO2 SLP194 T02670217 53009 $

METAR Board
Radar Display
Forecast Discussion

FOR SITUATIONAL AWARENESS. NOT TO BE USED FOR FLIGHT PLANNING PURPOSES.